< < Back
Terminal Aerodrome Forecast


Current Version              Previous Versions:   1  2  3  4  5  6  7  8  9  

Terminal Aerodrome Forecast

421
FTUS42 KFFC 152300 RRA
TAFPDK
TAF
KPDK 152342Z 1600/1624 32014G27KT P6SM SCT040
     FM160200 34011G20KT P6SM SKC
     FM160900 02008KT P6SM SKC
     FM161500 09010G17KT P6SM SCT250=



Latest METAR

870
SAUS70 KWBC 160400 RRC
MTRPDK
METAR KPDK 160353Z AUTO 33007G16KT 10SM CLR 03/M05 A3010 RMK AO2 SLP204
T00331050


USA.gov is the U.S. government's official web portal to all federal, state and local government web resources and services.